createdAt,value
2019-02-08T00:00:30.649Z,0
2019-02-08T00:01:11.318Z,0
2019-02-08T00:01:51.961Z,0
2019-02-08T00:02:33.692Z,0
2019-02-08T00:03:14.323Z,0
2019-02-08T00:03:54.983Z,0
2019-02-08T00:04:35.629Z,0
2019-02-08T00:05:16.257Z,0
2019-02-08T00:05:56.891Z,0
2019-02-08T00:06:37.545Z,0
2019-02-08T00:07:18.180Z,0
2019-02-08T00:07:58.868Z,0
2019-02-08T00:08:39.521Z,0
2019-02-08T00:09:20.218Z,0
2019-02-08T00:10:00.931Z,0
2019-02-08T00:10:41.578Z,0
2019-02-08T00:11:22.249Z,0
2019-02-08T00:12:02.926Z,0
2019-02-08T00:12:44.478Z,0
2019-02-08T00:13:25.112Z,0
2019-02-08T00:14:05.784Z,0
2019-02-08T00:14:46.438Z,0
2019-02-08T00:15:27.080Z,0
2019-02-08T00:16:07.724Z,0
2019-02-08T00:16:48.368Z,0
2019-02-08T00:17:29.002Z,0
2019-02-08T00:18:09.624Z,0
2019-02-08T00:18:50.291Z,0
2019-02-08T00:19:30.946Z,0
2019-02-08T00:20:11.584Z,0
2019-02-08T00:20:52.218Z,0
2019-02-08T00:21:32.868Z,0
2019-02-08T00:22:13.523Z,0
2019-02-08T00:22:54.166Z,0
2019-02-08T00:23:34.806Z,0
2019-02-08T00:24:15.443Z,0
2019-02-08T00:24:56.081Z,0
2019-02-08T00:25:36.683Z,0
2019-02-08T00:26:17.325Z,0
2019-02-08T00:26:57.919Z,0
2019-02-08T00:27:38.527Z,0
2019-02-08T00:28:19.131Z,0
2019-02-08T00:28:59.742Z,0
2019-02-08T00:29:40.342Z,0
2019-02-08T00:30:20.990Z,0
2019-02-08T00:31:01.587Z,0
2019-02-08T00:31:42.264Z,0
2019-02-08T00:32:22.884Z,0
2019-02-08T00:33:03.495Z,0
2019-02-08T00:33:44.116Z,0
2019-02-08T00:34:24.735Z,0
2019-02-08T00:35:05.357Z,0
2019-02-08T00:35:45.979Z,0
2019-02-08T00:36:26.563Z,0
2019-02-08T00:37:07.189Z,0
2019-02-08T00:37:47.794Z,0
2019-02-08T00:38:28.404Z,0
2019-02-08T00:39:08.996Z,0
2019-02-08T00:39:49.603Z,0
2019-02-08T00:40:30.209Z,0
2019-02-08T00:41:10.857Z,0
2019-02-08T00:41:51.491Z,0
2019-02-08T00:42:32.119Z,0
2019-02-08T00:43:12.743Z,0
2019-02-08T00:43:53.369Z,0
2019-02-08T00:44:33.955Z,0
2019-02-08T00:45:14.565Z,0
2019-02-08T00:45:55.160Z,0
2019-02-08T00:46:35.820Z,0
2019-02-08T00:47:16.411Z,0
2019-02-08T00:47:57.016Z,0
2019-02-08T00:48:37.613Z,0
2019-02-08T00:49:18.211Z,0
2019-02-08T00:49:58.825Z,0
2019-02-08T00:50:39.449Z,0
2019-02-08T00:51:20.063Z,0
2019-02-08T00:52:00.653Z,0
2019-02-08T00:52:41.285Z,0
2019-02-08T00:53:21.870Z,0
2019-02-08T00:54:02.497Z,0
2019-02-08T00:54:43.105Z,0
2019-02-08T00:55:23.731Z,0
2019-02-08T00:56:04.351Z,0
2019-02-08T00:56:44.944Z,0
2019-02-08T00:57:25.605Z,0
2019-02-08T00:58:06.200Z,0
2019-02-08T00:58:46.815Z,0
2019-02-08T00:59:27.455Z,0
2019-02-08T01:00:08.030Z,0
2019-02-08T01:00:48.627Z,0
2019-02-08T01:01:29.239Z,0
2019-02-08T01:02:09.827Z,0
2019-02-08T01:02:50.451Z,0
2019-02-08T01:03:31.049Z,0
2019-02-08T01:04:11.667Z,0
2019-02-08T01:04:52.271Z,0
2019-02-08T01:05:32.867Z,0
2019-02-08T01:06:13.473Z,0
2019-02-08T01:06:54.073Z,0
2019-02-08T01:07:34.661Z,0
2019-02-08T01:08:15.263Z,0
2019-02-08T01:08:55.843Z,0
2019-02-08T01:09:36.467Z,0
2019-02-08T01:10:17.055Z,0
2019-02-08T01:10:57.669Z,0
2019-02-08T01:11:38.277Z,0
2019-02-08T01:12:18.883Z,0
2019-02-08T01:12:59.478Z,0
2019-02-08T01:13:40.080Z,0
2019-02-08T01:14:20.690Z,0
2019-02-08T01:15:01.292Z,0
2019-02-08T01:15:41.895Z,0
2019-02-08T01:16:22.511Z,0
2019-02-08T01:17:03.109Z,0
2019-02-08T01:17:43.699Z,0
2019-02-08T01:18:24.295Z,0
2019-02-08T01:19:04.961Z,0
2019-02-08T01:19:45.555Z,0
2019-02-08T01:20:26.147Z,0
2019-02-08T01:21:06.758Z,0
2019-02-08T01:21:47.398Z,0
2019-02-08T01:22:28.015Z,0
2019-02-08T01:23:08.623Z,0
2019-02-08T01:23:49.211Z,0
2019-02-08T01:24:29.826Z,0
2019-02-08T01:25:10.416Z,0
2019-02-08T01:25:51.025Z,0
2019-02-08T01:26:31.693Z,0
2019-02-08T01:27:12.335Z,0
2019-02-08T01:27:52.921Z,0
2019-02-08T01:28:33.594Z,0
2019-02-08T01:29:14.151Z,0
2019-02-08T01:29:54.830Z,0
2019-02-08T01:30:35.433Z,0
2019-02-08T01:31:16.027Z,0
2019-02-08T01:31:56.619Z,0
2019-02-08T01:32:37.254Z,0
2019-02-08T01:33:17.859Z,0
2019-02-08T01:33:58.465Z,0
2019-02-08T01:34:39.053Z,0
2019-02-08T01:35:19.643Z,0
2019-02-08T01:36:00.245Z,0
2019-02-08T01:36:40.857Z,0
2019-02-08T01:37:21.489Z,0
2019-02-08T01:38:02.104Z,0
2019-02-08T01:38:42.691Z,0
2019-02-08T01:39:23.305Z,0
2019-02-08T01:40:03.921Z,0
2019-02-08T01:40:44.509Z,0
2019-02-08T01:41:25.105Z,0
2019-02-08T01:42:05.717Z,0
2019-02-08T01:42:46.321Z,0
2019-02-08T01:43:26.921Z,0
2019-02-08T01:44:07.521Z,0
2019-02-08T01:44:48.121Z,0
2019-02-08T01:45:28.713Z,0
2019-02-08T01:46:09.329Z,0
2019-02-08T01:46:49.936Z,0
2019-02-08T01:47:31.372Z,0
2019-02-08T01:48:13.639Z,0
2019-02-08T01:48:54.234Z,0
2019-02-08T01:49:34.831Z,0
2019-02-08T01:50:15.425Z,0
2019-02-08T01:50:56.045Z,0
2019-02-08T01:51:36.643Z,0
2019-02-08T01:52:17.256Z,0
2019-02-08T01:52:57.908Z,0
2019-02-08T01:53:38.502Z,0
2019-02-08T01:54:19.154Z,0
2019-02-08T01:54:59.774Z,0
2019-02-08T01:55:40.363Z,0
2019-02-08T01:56:20.973Z,0
2019-02-08T01:57:01.558Z,0
2019-02-08T01:57:42.167Z,0
2019-02-08T01:58:22.799Z,0
2019-02-08T01:59:03.394Z,0
2019-02-08T01:59:44.002Z,0
2019-02-08T02:00:24.627Z,0
2019-02-08T02:01:05.231Z,0
2019-02-08T02:01:45.827Z,0
2019-02-08T02:02:26.442Z,0
2019-02-08T02:03:07.027Z,0
2019-02-08T02:03:47.624Z,0
2019-02-08T02:04:28.223Z,0
2019-02-08T02:05:08.831Z,0
2019-02-08T02:05:49.425Z,0
2019-02-08T02:06:30.030Z,0
2019-02-08T02:07:10.639Z,0
2019-02-08T02:07:51.233Z,0
2019-02-08T02:08:31.835Z,0
2019-02-08T02:09:12.425Z,0
2019-02-08T02:09:53.040Z,0
2019-02-08T02:10:33.648Z,0
2019-02-08T02:11:14.231Z,0
2019-02-08T02:11:54.825Z,0
2019-02-08T02:12:35.411Z,0
2019-02-08T02:13:16.005Z,0
2019-02-08T02:13:56.601Z,0
2019-02-08T02:14:37.201Z,0
2019-02-08T02:15:17.811Z,0
2019-02-08T02:15:58.405Z,0
2019-02-08T02:16:39.018Z,0
2019-02-08T02:17:19.607Z,0
2019-02-08T02:18:00.213Z,0
2019-02-08T02:18:40.799Z,0
2019-02-08T02:19:21.466Z,0
2019-02-08T02:20:02.067Z,0
2019-02-08T02:20:42.665Z,0
2019-02-08T02:21:23.271Z,0
2019-02-08T02:22:03.858Z,0
2019-02-08T02:22:44.449Z,0
2019-02-08T02:23:25.033Z,0
2019-02-08T02:24:05.611Z,0
2019-02-08T02:24:46.219Z,0
2019-02-08T02:25:26.825Z,0
2019-02-08T02:26:07.459Z,0
2019-02-08T02:26:48.066Z,0
2019-02-08T02:27:28.661Z,0
2019-02-08T02:28:09.265Z,0
2019-02-08T02:28:49.879Z,0
2019-02-08T02:29:30.493Z,0
2019-02-08T02:30:11.085Z,0
2019-02-08T02:30:51.722Z,0
2019-02-08T02:31:32.324Z,0
2019-02-08T02:32:12.927Z,0
2019-02-08T02:32:53.536Z,0
2019-02-08T02:33:34.129Z,0
2019-02-08T02:34:14.747Z,0
2019-02-08T02:34:55.349Z,0
2019-02-08T02:35:35.966Z,0
2019-02-08T02:36:16.556Z,0
2019-02-08T02:36:57.154Z,0
2019-02-08T02:37:37.748Z,0
2019-02-08T02:38:18.354Z,0
2019-02-08T02:38:58.961Z,0
2019-02-08T02:39:39.574Z,0
2019-02-08T02:40:20.168Z,0
2019-02-08T02:41:00.781Z,0
2019-02-08T02:41:41.383Z,0
2019-02-08T02:42:22.017Z,0
2019-02-08T02:43:02.634Z,0
2019-02-08T02:43:43.269Z,0
2019-02-08T02:44:23.869Z,0
2019-02-08T02:45:04.487Z,0
2019-02-08T02:45:45.082Z,0
2019-02-08T02:46:25.678Z,0
2019-02-08T02:47:06.263Z,0
2019-02-08T02:47:46.870Z,0
2019-02-08T02:48:27.466Z,0
2019-02-08T02:49:08.064Z,0
2019-02-08T02:49:48.658Z,0
2019-02-08T02:50:29.257Z,0
2019-02-08T02:51:09.849Z,0
2019-02-08T02:51:50.442Z,0
2019-02-08T02:52:31.039Z,0
2019-02-08T02:53:11.627Z,0
2019-02-08T02:53:52.298Z,0
2019-02-08T02:54:32.840Z,0
2019-02-08T02:55:13.502Z,0
2019-02-08T02:55:54.101Z,0
2019-02-08T02:56:34.709Z,0
2019-02-08T02:57:15.331Z,0
2019-02-08T02:57:55.909Z,0
2019-02-08T02:58:36.533Z,0
2019-02-08T02:59:17.143Z,0
2019-02-08T02:59:57.757Z,0
2019-02-08T03:00:38.406Z,0
2019-02-08T03:01:19.019Z,0
2019-02-08T03:01:59.637Z,0
2019-02-08T03:02:40.235Z,0
2019-02-08T03:03:20.865Z,0
2019-02-08T03:04:01.494Z,0
2019-02-08T03:04:42.051Z,0
2019-02-08T03:05:22.643Z,0
2019-02-08T03:06:03.254Z,0
2019-02-08T03:06:43.877Z,0
2019-02-08T03:07:24.461Z,0
2019-02-08T03:08:05.072Z,0
2019-02-08T03:08:45.669Z,0
2019-02-08T03:09:26.276Z,0
2019-02-08T03:10:06.864Z,0
2019-02-08T03:10:47.463Z,0
2019-02-08T03:11:28.064Z,0
2019-02-08T03:12:08.678Z,0
2019-02-08T03:12:49.269Z,0
2019-02-08T03:13:29.878Z,0
2019-02-08T03:14:10.490Z,0
2019-02-08T03:14:51.091Z,0
2019-02-08T03:15:31.701Z,0
2019-02-08T03:16:12.290Z,0
2019-02-08T03:16:52.888Z,0
2019-02-08T03:17:33.488Z,0
2019-02-08T03:18:14.089Z,0
2019-02-08T03:18:54.705Z,0
2019-02-08T03:19:35.291Z,0
2019-02-08T03:20:15.893Z,0
2019-02-08T03:20:56.497Z,0
2019-02-08T03:21:37.104Z,0
2019-02-08T03:22:17.697Z,0
2019-02-08T03:22:58.291Z,0
2019-02-08T03:23:38.903Z,0
2019-02-08T03:24:19.497Z,0
2019-02-08T03:25:00.326Z,0
2019-02-08T03:25:40.758Z,0
2019-02-08T03:26:21.367Z,0
2019-02-08T03:27:01.958Z,0
2019-02-08T03:27:42.613Z,0
2019-02-08T03:28:23.233Z,0
2019-02-08T03:29:03.842Z,0
2019-02-08T03:29:44.455Z,0
2019-02-08T03:30:25.072Z,0
2019-02-08T03:31:05.682Z,0
2019-02-08T03:31:46.279Z,0
2019-02-08T03:32:26.878Z,0
2019-02-08T03:33:07.476Z,0
2019-02-08T03:33:48.103Z,0
2019-02-08T03:34:28.697Z,0
2019-02-08T03:35:09.339Z,0
2019-02-08T03:35:49.966Z,0
2019-02-08T03:36:30.556Z,0
2019-02-08T03:37:11.152Z,0
2019-02-08T03:37:51.775Z,0
2019-02-08T03:38:32.393Z,0
2019-02-08T03:39:12.994Z,0
2019-02-08T03:39:53.604Z,0
2019-02-08T03:40:34.207Z,0
2019-02-08T03:41:14.799Z,0
2019-02-08T03:41:55.396Z,0
2019-02-08T03:42:35.995Z,0
2019-02-08T03:43:16.579Z,0
2019-02-08T03:43:57.169Z,0
2019-02-08T03:44:37.782Z,0
2019-02-08T03:45:18.368Z,0
2019-02-08T03:45:58.978Z,0
2019-02-08T03:46:39.617Z,0
2019-02-08T03:47:20.223Z,0
2019-02-08T03:48:00.821Z,0
2019-02-08T03:48:41.431Z,0
2019-02-08T03:49:22.038Z,0
2019-02-08T03:50:02.648Z,0
2019-02-08T03:50:43.228Z,0
2019-02-08T03:51:23.831Z,0
2019-02-08T03:52:04.431Z,0
2019-02-08T03:52:45.036Z,0
2019-02-08T03:53:25.640Z,0
2019-02-08T03:54:06.243Z,0
2019-02-08T03:54:46.854Z,0
2019-02-08T03:55:27.451Z,0
2019-02-08T03:56:08.052Z,0
2019-02-08T03:56:48.649Z,0
2019-02-08T03:57:29.244Z,0
2019-02-08T03:58:09.830Z,0
2019-02-08T03:58:50.435Z,0
2019-02-08T03:59:31.018Z,0
2019-02-08T04:00:11.615Z,0
2019-02-08T04:00:52.202Z,0
2019-02-08T04:01:32.835Z,0
2019-02-08T04:02:13.463Z,0
2019-02-08T04:02:54.145Z,0
2019-02-08T04:03:34.740Z,0
2019-02-08T04:04:15.362Z,0
2019-02-08T04:04:55.973Z,0
2019-02-08T04:05:36.600Z,0
2019-02-08T04:06:17.208Z,0
2019-02-08T04:06:57.803Z,0
2019-02-08T04:07:38.421Z,0
2019-02-08T04:08:19.014Z,0
2019-02-08T04:08:59.598Z,0
2019-02-08T04:09:40.189Z,0
2019-02-08T04:10:20.785Z,0
2019-02-08T04:11:01.399Z,0
2019-02-08T04:11:41.995Z,0
2019-02-08T04:12:22.589Z,0
2019-02-08T04:13:03.237Z,0
2019-02-08T04:13:43.856Z,0
2019-02-08T04:14:24.462Z,0
2019-02-08T04:15:05.054Z,0
2019-02-08T04:15:45.653Z,0
2019-02-08T04:16:26.282Z,0
2019-02-08T04:17:06.935Z,0
2019-02-08T04:17:47.585Z,0
2019-02-08T04:18:28.195Z,0
2019-02-08T04:19:08.800Z,0
2019-02-08T04:19:49.387Z,0
2019-02-08T04:20:29.995Z,0
2019-02-08T04:21:10.591Z,0
2019-02-08T04:21:51.216Z,0
2019-02-08T04:22:31.808Z,0
2019-02-08T04:23:12.405Z,0
2019-02-08T04:23:52.999Z,0
2019-02-08T04:24:33.581Z,0
2019-02-08T04:25:14.176Z,0
2019-02-08T04:25:54.760Z,0
2019-02-08T04:26:35.363Z,0
2019-02-08T04:27:15.956Z,0
2019-02-08T04:27:56.568Z,0
2019-02-08T04:28:37.161Z,0
2019-02-08T04:29:17.756Z,0
2019-02-08T04:29:58.373Z,0
2019-02-08T04:30:38.958Z,0
2019-02-08T04:31:19.568Z,0
2019-02-08T04:32:00.174Z,0
2019-02-08T04:32:40.773Z,0
2019-02-08T04:33:21.381Z,0
2019-02-08T04:34:01.983Z,0
2019-02-08T04:34:42.566Z,0
2019-02-08T04:35:23.176Z,0
2019-02-08T04:36:03.810Z,0
2019-02-08T04:36:44.426Z,0
2019-02-08T04:37:25.037Z,0
2019-02-08T04:38:05.642Z,0
2019-02-08T04:38:46.243Z,0
2019-02-08T04:39:26.850Z,0
2019-02-08T04:40:07.453Z,0
2019-02-08T04:40:48.064Z,0
2019-02-08T04:41:28.663Z,0
2019-02-08T04:42:09.305Z,0
2019-02-08T04:42:49.916Z,0
2019-02-08T04:43:30.515Z,0
2019-02-08T04:44:11.112Z,0
2019-02-08T04:44:51.718Z,0
2019-02-08T04:45:32.302Z,0
2019-02-08T04:46:12.914Z,0
2019-02-08T04:46:53.524Z,0
2019-02-08T04:47:34.127Z,0
2019-02-08T04:48:14.758Z,0
2019-02-08T04:48:55.401Z,0
2019-02-08T04:49:35.975Z,0
2019-02-08T04:50:16.573Z,0
2019-02-08T04:50:57.164Z,0
2019-02-08T04:51:37.767Z,0
2019-02-08T04:52:19.084Z,0
2019-02-08T04:52:59.702Z,0
2019-02-08T04:53:40.290Z,0
2019-02-08T04:54:20.890Z,0
2019-02-08T04:55:01.484Z,0
2019-02-08T04:55:42.081Z,0
2019-02-08T04:56:22.666Z,0
2019-02-08T04:57:03.266Z,0
2019-02-08T04:57:43.860Z,0
2019-02-08T04:58:24.459Z,0
2019-02-08T04:59:05.075Z,0
2019-02-08T04:59:45.717Z,0
2019-02-08T05:00:26.327Z,0
2019-02-08T05:01:06.953Z,0
2019-02-08T05:01:47.527Z,0
2019-02-08T05:02:28.128Z,0
2019-02-08T05:03:08.716Z,0
2019-02-08T05:03:49.313Z,0
2019-02-08T05:04:29.903Z,0
2019-02-08T05:05:10.507Z,0
2019-02-08T05:05:51.095Z,0
2019-02-08T05:06:31.703Z,0
2019-02-08T05:07:12.289Z,0
2019-02-08T05:07:52.890Z,0
2019-02-08T05:08:33.490Z,0
2019-02-08T05:09:14.076Z,0
2019-02-08T05:09:54.670Z,0
2019-02-08T05:10:35.273Z,0
2019-02-08T05:11:15.878Z,0
2019-02-08T05:11:56.479Z,0
2019-02-08T05:12:37.094Z,0
2019-02-08T05:13:17.668Z,0
2019-02-08T05:13:58.258Z,0
2019-02-08T05:14:38.879Z,0
2019-02-08T05:15:19.473Z,0
2019-02-08T05:16:00.070Z,0
2019-02-08T05:18:20.560Z,0
2019-02-08T05:19:01.147Z,0
2019-02-08T05:19:41.777Z,0
2019-02-08T05:20:22.360Z,0
2019-02-08T05:21:02.952Z,0
2019-02-08T05:21:43.553Z,0
2019-02-08T05:22:24.173Z,0
2019-02-08T05:23:04.762Z,0
2019-02-08T05:23:45.362Z,0
2019-02-08T05:24:25.971Z,0
2019-02-08T05:25:06.570Z,0
2019-02-08T05:25:47.164Z,0
2019-02-08T05:26:27.798Z,0
2019-02-08T05:27:08.440Z,0
2019-02-08T05:27:49.047Z,0
2019-02-08T05:28:29.652Z,0
2019-02-08T05:29:10.250Z,0
2019-02-08T05:29:50.860Z,0
2019-02-08T05:30:31.454Z,0
2019-02-08T05:31:12.058Z,0
2019-02-08T05:31:52.658Z,0
2019-02-08T05:32:33.248Z,0
2019-02-08T05:33:13.832Z,0
2019-02-08T05:33:54.436Z,0
2019-02-08T05:34:35.024Z,0
2019-02-08T05:35:15.616Z,0
2019-02-08T05:35:56.220Z,0
2019-02-08T05:36:36.819Z,0
2019-02-08T05:37:17.414Z,0
2019-02-08T05:37:58.016Z,0
2019-02-08T05:38:38.610Z,0
2019-02-08T05:39:19.218Z,0
2019-02-08T05:39:59.810Z,0
2019-02-08T05:40:40.416Z,0
2019-02-08T05:41:21.010Z,0
2019-02-08T05:42:01.601Z,0
2019-02-08T05:42:42.198Z,0
2019-02-08T05:43:22.786Z,0
2019-02-08T05:44:03.380Z,0
2019-02-08T05:44:43.980Z,0
2019-02-08T05:45:24.572Z,0
2019-02-08T05:46:05.169Z,0
2019-02-08T05:46:45.755Z,0
2019-02-08T05:47:26.359Z,0
2019-02-08T05:48:06.953Z,0
2019-02-08T05:48:47.544Z,0
2019-02-08T05:49:28.149Z,0
2019-02-08T05:50:08.747Z,0
2019-02-08T05:50:49.318Z,0
2019-02-08T05:51:29.957Z,0
2019-02-08T05:52:10.515Z,0
2019-02-08T05:52:51.114Z,0
2019-02-08T05:53:31.718Z,0
2019-02-08T05:54:12.313Z,0
2019-02-08T05:54:54.316Z,0
2019-02-08T05:55:33.528Z,0
2019-02-08T05:56:14.108Z,0
2019-02-08T05:56:54.707Z,0
2019-02-08T05:57:35.290Z,0
2019-02-08T05:58:15.900Z,0
2019-02-08T05:58:56.508Z,0
2019-02-08T05:59:37.108Z,0
2019-02-08T06:00:17.707Z,0
2019-02-08T06:00:58.290Z,0
2019-02-08T06:01:38.886Z,0
2019-02-08T06:02:19.495Z,0
2019-02-08T06:03:00.080Z,0
2019-02-08T06:03:40.690Z,0
2019-02-08T06:04:21.307Z,0
2019-02-08T06:05:01.915Z,0
2019-02-08T06:05:42.515Z,0
2019-02-08T06:06:23.130Z,0
2019-02-08T06:07:03.723Z,0
2019-02-08T06:07:44.324Z,0
2019-02-08T06:08:24.932Z,0
2019-02-08T06:09:05.529Z,0
2019-02-08T06:09:46.128Z,0
2019-02-08T06:10:26.722Z,0
2019-02-08T06:11:07.317Z,0
2019-02-08T06:11:47.914Z,0
2019-02-08T06:12:28.588Z,0
2019-02-08T06:13:09.180Z,0
2019-02-08T06:13:49.785Z,0
2019-02-08T06:14:30.404Z,0
2019-02-08T06:15:11.055Z,0
2019-02-08T06:15:51.662Z,0
2019-02-08T06:16:32.253Z,0
2019-02-08T06:17:12.853Z,0
2019-02-08T06:17:53.464Z,0
2019-02-08T06:18:34.028Z,0
2019-02-08T06:19:14.664Z,0
2019-02-08T06:19:55.240Z,0
2019-02-08T06:20:35.828Z,0
2019-02-08T06:21:16.454Z,0
2019-02-08T06:21:57.066Z,0
2019-02-08T06:22:38.953Z,0
2019-02-08T06:23:18.320Z,0
2019-02-08T06:23:58.956Z,0
2019-02-08T06:24:39.562Z,0
2019-02-08T06:25:20.171Z,0
2019-02-08T06:26:00.764Z,0
2019-02-08T06:26:41.392Z,0
2019-02-08T06:27:21.988Z,0
2019-02-08T06:28:02.578Z,0
2019-02-08T06:28:43.178Z,0
2019-02-08T06:29:23.776Z,0
2019-02-08T06:30:04.386Z,0
2019-02-08T06:30:44.985Z,0
2019-02-08T06:31:25.590Z,0
2019-02-08T06:32:06.198Z,0
2019-02-08T06:32:46.790Z,0
2019-02-08T06:33:27.377Z,0
2019-02-08T06:34:07.966Z,0
2019-02-08T06:34:48.561Z,0
2019-02-08T06:35:29.174Z,0
2019-02-08T06:36:09.792Z,0
2019-02-08T06:36:50.382Z,0
2019-02-08T06:37:30.970Z,0
2019-02-08T06:38:11.569Z,0
2019-02-08T06:38:52.152Z,0
2019-02-08T06:39:32.744Z,0
2019-02-08T06:40:13.334Z,0
2019-02-08T06:40:53.922Z,0
2019-02-08T06:41:34.522Z,0
2019-02-08T06:42:15.138Z,0
2019-02-08T06:42:55.744Z,4
2019-02-08T06:43:36.350Z,0
2019-02-08T06:44:16.954Z,0
2019-02-08T06:44:57.546Z,0
2019-02-08T06:45:38.153Z,4
2019-02-08T06:46:18.743Z,4
2019-02-08T06:46:59.365Z,0
2019-02-08T06:47:39.970Z,4
2019-02-08T06:48:20.548Z,4
2019-02-08T06:49:01.148Z,4
2019-02-08T06:49:41.734Z,4
2019-02-08T06:50:22.336Z,4
2019-02-08T06:51:04.057Z,8
2019-02-08T06:51:43.566Z,8
2019-02-08T06:52:24.156Z,8
2019-02-08T06:53:04.759Z,8
2019-02-08T06:53:45.364Z,8
2019-02-08T06:54:25.962Z,8
2019-02-08T06:55:10.845Z,8
2019-02-08T06:55:47.168Z,8
2019-02-08T06:56:27.789Z,12
2019-02-08T06:57:08.386Z,12
2019-02-08T06:57:48.982Z,12
2019-02-08T06:58:29.582Z,12
2019-02-08T06:59:10.170Z,16
2019-02-08T06:59:50.787Z,16
2019-02-08T07:00:31.382Z,20
2019-02-08T07:01:11.978Z,20
2019-02-08T07:01:52.570Z,20
2019-02-08T07:02:33.186Z,20
2019-02-08T07:03:13.782Z,20
2019-02-08T07:03:54.380Z,24
2019-02-08T07:04:34.966Z,28
2019-02-08T07:05:15.559Z,32
2019-02-08T07:05:56.136Z,32
2019-02-08T07:06:36.730Z,36
2019-02-08T07:07:17.328Z,36
2019-02-08T07:07:57.909Z,44
2019-02-08T07:08:38.510Z,48
2019-02-08T07:09:19.104Z,52
2019-02-08T07:09:59.700Z,56
2019-02-08T07:10:41.398Z,56
2019-02-08T07:11:20.878Z,60
2019-02-08T07:12:01.462Z,64
2019-02-08T07:12:42.066Z,64
2019-02-08T07:13:22.668Z,68
2019-02-08T07:14:03.254Z,76
2019-02-08T07:14:43.870Z,80
2019-02-08T07:15:24.490Z,80
2019-02-08T07:16:05.072Z,80
2019-02-08T07:16:45.694Z,88
2019-02-08T07:17:26.304Z,88
2019-02-08T07:18:06.890Z,96
2019-02-08T07:18:47.490Z,96
2019-02-08T07:19:28.091Z,96
2019-02-08T07:20:08.676Z,100
2019-02-08T07:20:49.274Z,100
2019-02-08T07:21:29.884Z,104
2019-02-08T07:22:10.543Z,108
2019-02-08T07:22:51.126Z,112
2019-02-08T07:23:31.718Z,116
2019-02-08T07:24:12.304Z,120
2019-02-08T07:24:52.938Z,124
2019-02-08T07:25:33.530Z,128
2019-02-08T07:26:14.154Z,136
2019-02-08T07:26:54.738Z,140
2019-02-08T07:27:35.364Z,148
2019-02-08T07:28:15.940Z,152
2019-02-08T07:28:56.528Z,156
2019-02-08T07:29:37.117Z,164
2019-02-08T07:30:17.722Z,168
2019-02-08T07:30:58.336Z,180
2019-02-08T07:31:38.933Z,188
2019-02-08T07:32:19.534Z,196
2019-02-08T07:33:00.122Z,208
2019-02-08T07:33:40.712Z,216
2019-02-08T07:34:21.328Z,224
2019-02-08T07:35:01.926Z,232
2019-02-08T07:35:42.514Z,240
2019-02-08T07:36:23.112Z,244
2019-02-08T07:37:03.734Z,252
2019-02-08T07:37:44.325Z,260
2019-02-08T07:38:24.930Z,268
2019-02-08T07:39:05.564Z,276
2019-02-08T07:39:46.196Z,288
2019-02-08T07:40:26.800Z,300
2019-02-08T07:41:07.430Z,308
2019-02-08T07:41:48.028Z,316
2019-02-08T07:42:28.620Z,328
2019-02-08T07:43:09.204Z,336
2019-02-08T07:43:49.825Z,344
2019-02-08T07:44:30.397Z,352
2019-02-08T07:45:10.993Z,356
2019-02-08T07:45:51.582Z,364
2019-02-08T07:46:32.169Z,372
2019-02-08T07:47:12.755Z,372
2019-02-08T07:47:53.364Z,376
2019-02-08T07:48:33.972Z,380
2019-02-08T07:49:14.560Z,380
2019-02-08T07:49:55.152Z,388
2019-02-08T07:50:35.754Z,388
2019-02-08T07:51:16.352Z,392
2019-02-08T07:51:56.962Z,400
2019-02-08T07:52:37.560Z,412
2019-02-08T07:53:18.162Z,420
2019-02-08T07:53:58.776Z,420
2019-02-08T07:54:39.393Z,428
2019-02-08T07:55:25.883Z,432
2019-02-08T07:56:00.576Z,432
2019-02-08T07:56:41.166Z,436
2019-02-08T07:57:21.768Z,436
2019-02-08T07:58:02.382Z,440
2019-02-08T07:58:43.003Z,444
2019-02-08T07:59:23.580Z,444
2019-02-08T08:00:04.186Z,444
2019-02-08T08:00:44.774Z,448
2019-02-08T08:01:25.372Z,452
2019-02-08T08:02:05.959Z,464
2019-02-08T08:02:46.582Z,468
2019-02-08T08:03:27.180Z,476
2019-02-08T08:04:07.762Z,484
2019-02-08T08:04:48.381Z,484
2019-02-08T08:05:28.993Z,492
2019-02-08T08:06:09.599Z,496
2019-02-08T08:06:50.203Z,496
2019-02-08T08:07:30.812Z,504
2019-02-08T08:08:11.406Z,508
2019-02-08T08:08:51.997Z,512
2019-02-08T08:09:32.616Z,520
2019-02-08T08:10:13.214Z,524
2019-02-08T08:10:53.832Z,532
2019-02-08T08:11:34.427Z,536
2019-02-08T08:12:15.017Z,540
2019-02-08T08:12:55.630Z,544
2019-02-08T08:13:36.226Z,548
2019-02-08T08:14:16.832Z,560
2019-02-08T08:14:57.430Z,560
2019-02-08T08:15:38.033Z,568
2019-02-08T08:16:18.624Z,572
2019-02-08T08:16:59.222Z,580
2019-02-08T08:17:39.835Z,584
2019-02-08T08:18:20.438Z,588
2019-02-08T08:19:01.031Z,596
2019-02-08T08:19:41.632Z,596
2019-02-08T08:20:22.248Z,604
2019-02-08T08:21:02.877Z,612
2019-02-08T08:21:43.482Z,616
2019-02-08T08:22:24.107Z,624
2019-02-08T08:23:04.702Z,628
2019-02-08T08:23:45.289Z,628
2019-02-08T08:24:25.936Z,636
2019-02-08T08:25:06.557Z,636
2019-02-08T08:25:47.161Z,636
2019-02-08T08:26:27.786Z,640
2019-02-08T08:27:08.391Z,636
2019-02-08T08:27:49.010Z,640
2019-02-08T08:28:29.633Z,644
2019-02-08T08:29:10.225Z,644
2019-02-08T08:29:50.834Z,648
2019-02-08T08:30:31.427Z,652
2019-02-08T08:31:12.019Z,652
2019-02-08T08:31:52.608Z,652
2019-02-08T08:32:33.244Z,656
2019-02-08T08:33:13.859Z,660
2019-02-08T08:33:54.498Z,660
2019-02-08T08:34:35.105Z,656
2019-02-08T08:35:15.728Z,656
2019-02-08T08:35:56.326Z,652
2019-02-08T08:36:36.932Z,648
2019-02-08T08:37:17.544Z,644
2019-02-08T08:37:58.136Z,644
2019-02-08T08:38:38.728Z,644
2019-02-08T08:39:19.350Z,640
2019-02-08T08:39:59.937Z,636
2019-02-08T08:40:40.547Z,636
2019-02-08T08:41:21.143Z,632
2019-02-08T08:42:01.749Z,628
2019-02-08T08:42:42.974Z,624
2019-02-08T08:43:23.026Z,624
2019-02-08T08:44:03.608Z,620
2019-02-08T08:44:44.210Z,616
2019-02-08T08:45:24.816Z,616
2019-02-08T08:46:05.416Z,612
2019-02-08T08:46:46.018Z,604
2019-02-08T08:47:26.616Z,600
2019-02-08T08:48:07.233Z,600
2019-02-08T08:48:47.840Z,596
2019-02-08T08:49:28.420Z,588
2019-02-08T08:50:09.005Z,580
2019-02-08T08:50:49.627Z,580
2019-02-08T08:51:30.216Z,568
2019-02-08T08:52:10.824Z,556
2019-02-08T08:52:51.438Z,556
2019-02-08T08:53:32.032Z,560
2019-02-08T08:54:12.620Z,560
2019-02-08T08:54:53.214Z,560
2019-02-08T08:55:41.718Z,560
2019-02-08T08:56:14.412Z,564
2019-02-08T08:56:55.023Z,564
2019-02-08T08:57:35.623Z,572
2019-02-08T08:58:16.241Z,576
2019-02-08T08:58:56.829Z,580
2019-02-08T08:59:37.431Z,584
2019-02-08T09:00:18.056Z,588
2019-02-08T09:00:58.660Z,592
2019-02-08T09:01:39.283Z,592
2019-02-08T09:02:20.985Z,592
2019-02-08T09:03:01.633Z,596
2019-02-08T09:03:42.235Z,596
2019-02-08T09:04:22.834Z,604
2019-02-08T09:05:03.447Z,612
2019-02-08T09:05:44.050Z,616
2019-02-08T09:06:24.688Z,620
2019-02-08T09:07:05.281Z,624
2019-02-08T09:07:45.877Z,624
2019-02-08T09:08:26.499Z,624
2019-02-08T09:09:07.101Z,628
2019-02-08T09:09:47.689Z,628
2019-02-08T09:10:28.306Z,632
2019-02-08T09:11:08.898Z,644
2019-02-08T09:11:49.539Z,652
2019-02-08T09:12:30.131Z,660
2019-02-08T09:13:14.792Z,660
2019-02-08T09:13:51.312Z,664
2019-02-08T09:14:31.911Z,668
2019-02-08T09:15:12.532Z,672
2019-02-08T09:15:53.118Z,676
2019-02-08T09:16:33.717Z,676
2019-02-08T09:17:14.321Z,680
2019-02-08T09:17:54.919Z,680
2019-02-08T09:18:35.525Z,684
2019-02-08T09:19:16.144Z,692
2019-02-08T09:19:56.734Z,696
2019-02-08T09:20:38.961Z,692
2019-02-08T09:21:17.933Z,692
2019-02-08T09:21:58.537Z,692
2019-02-08T09:22:39.145Z,692
2019-02-08T09:23:19.733Z,692
2019-02-08T09:24:00.347Z,692
2019-02-08T09:24:40.941Z,680
2019-02-08T09:25:21.535Z,688
2019-02-08T09:26:02.141Z,696
2019-02-08T09:26:42.750Z,692
2019-02-08T09:27:23.357Z,696
2019-02-08T09:28:03.966Z,692
2019-02-08T09:28:44.567Z,696
2019-02-08T09:29:25.180Z,692
2019-02-08T09:30:05.799Z,700
2019-02-08T09:30:46.393Z,700
2019-02-08T09:31:26.995Z,700
2019-02-08T09:32:07.604Z,696
2019-02-08T09:32:48.212Z,700
2019-02-08T09:33:28.869Z,704
2019-02-08T09:34:09.469Z,708
2019-02-08T09:34:50.077Z,704
2019-02-08T09:35:30.686Z,704
2019-02-08T09:36:11.302Z,700
2019-02-08T09:36:51.891Z,700
2019-02-08T09:37:32.480Z,700
2019-02-08T09:38:13.077Z,704
2019-02-08T09:38:53.687Z,704
2019-02-08T09:39:34.301Z,704
2019-02-08T09:40:14.894Z,704
2019-02-08T09:40:55.501Z,700
2019-02-08T09:41:36.100Z,708
2019-02-08T09:42:16.692Z,708
2019-02-08T09:42:57.302Z,712
2019-02-08T09:43:37.899Z,636
2019-02-08T09:44:18.509Z,596
2019-02-08T09:44:59.117Z,604
2019-02-08T09:45:39.715Z,700
2019-02-08T09:46:20.331Z,640
2019-02-08T09:47:00.946Z,604
2019-02-08T09:47:41.553Z,596
2019-02-08T09:48:22.160Z,548
2019-02-08T09:49:02.762Z,704
2019-02-08T09:49:43.399Z,712
2019-02-08T09:50:23.979Z,720